sensor_id;sensor_type;location;lat;lon;timestamp;P1;durP1;ratioP1;P2;durP2;ratioP2
21018;SDS011;10667;51.056;3.732;2023-03-19T00:01:26;6.65;;;4.75;;
21018;SDS011;10667;51.056;3.732;2023-03-19T00:03:52;5.28;;;4.50;;
21018;SDS011;10667;51.056;3.732;2023-03-19T00:06:18;7.57;;;4.45;;
21018;SDS011;10667;51.056;3.732;2023-03-19T00:08:44;5.28;;;4.78;;
21018;SDS011;10667;51.056;3.732;2023-03-19T00:11:11;4.82;;;4.32;;
21018;SDS011;10667;51.056;3.732;2023-03-19T00:13:37;6.10;;;4.60;;
21018;SDS011;10667;51.056;3.732;2023-03-19T00:16:04;7.75;;;4.82;;
21018;SDS011;10667;51.056;3.732;2023-03-19T00:18:30;7.82;;;4.63;;
21018;SDS011;10667;51.056;3.732;2023-03-19T00:20:56;9.02;;;4.90;;
21018;SDS011;10667;51.056;3.732;2023-03-19T00:23:22;5.20;;;4.18;;
21018;SDS011;10667;51.056;3.732;2023-03-19T00:25:48;7.18;;;4.95;;
21018;SDS011;10667;51.056;3.732;2023-03-19T00:28:14;5.05;;;4.55;;
21018;SDS011;10667;51.056;3.732;2023-03-19T00:30:40;9.20;;;4.95;;
21018;SDS011;10667;51.056;3.732;2023-03-19T00:33:05;6.57;;;4.85;;
21018;SDS011;10667;51.056;3.732;2023-03-19T00:35:32;5.40;;;4.90;;
21018;SDS011;10667;51.056;3.732;2023-03-19T00:37:57;6.50;;;4.85;;
21018;SDS011;10667;51.056;3.732;2023-03-19T00:40:23;6.25;;;4.97;;
21018;SDS011;10667;51.056;3.732;2023-03-19T00:42:49;6.15;;;4.95;;
21018;SDS011;10667;51.056;3.732;2023-03-19T00:45:15;6.05;;;5.05;;
21018;SDS011;10667;51.056;3.732;2023-03-19T00:47:40;6.18;;;5.15;;
21018;SDS011;10667;51.056;3.732;2023-03-19T00:50:06;6.25;;;5.20;;
21018;SDS011;10667;51.056;3.732;2023-03-19T00:52:33;5.95;;;5.10;;
21018;SDS011;10667;51.056;3.732;2023-03-19T00:54:58;6.80;;;5.82;;
21018;SDS011;10667;51.056;3.732;2023-03-19T00:57:24;7.15;;;5.35;;
21018;SDS011;10667;51.056;3.732;2023-03-19T00:59:50;7.03;;;5.80;;
21018;SDS011;10667;51.056;3.732;2023-03-19T01:02:16;7.97;;;5.93;;
21018;SDS011;10667;51.056;3.732;2023-03-19T01:04:42;10.55;;;6.38;;
21018;SDS011;10667;51.056;3.732;2023-03-19T01:07:08;7.03;;;6.32;;
21018;SDS011;10667;51.056;3.732;2023-03-19T01:09:33;8.13;;;6.43;;
21018;SDS011;10667;51.056;3.732;2023-03-19T01:12:00;8.43;;;6.35;;
21018;SDS011;10667;51.056;3.732;2023-03-19T01:14:29;9.57;;;6.25;;
21018;SDS011;10667;51.056;3.732;2023-03-19T01:16:55;8.30;;;6.55;;
21018;SDS011;10667;51.056;3.732;2023-03-19T01:19:21;9.40;;;6.75;;
21018;SDS011;10667;51.056;3.732;2023-03-19T01:21:47;10.43;;;7.15;;
21018;SDS011;10667;51.056;3.732;2023-03-19T01:24:14;10.15;;;7.50;;
21018;SDS011;10667;51.056;3.732;2023-03-19T01:26:40;9.38;;;6.10;;
21018;SDS011;10667;51.056;3.732;2023-03-19T01:29:07;11.23;;;6.47;;
21018;SDS011;10667;51.056;3.732;2023-03-19T01:31:33;12.52;;;6.80;;
21018;SDS011;10667;51.056;3.732;2023-03-19T01:33:59;9.38;;;5.88;;
21018;SDS011;10667;51.056;3.732;2023-03-19T01:36:26;8.48;;;5.60;;
21018;SDS011;10667;51.056;3.732;2023-03-19T01:38:53;8.73;;;6.40;;
21018;SDS011;10667;51.056;3.732;2023-03-19T01:41:20;11.50;;;6.65;;
21018;SDS011;10667;51.056;3.732;2023-03-19T01:43:47;7.57;;;6.53;;
21018;SDS011;10667;51.056;3.732;2023-03-19T01:46:15;7.68;;;6.45;;
21018;SDS011;10667;51.056;3.732;2023-03-19T01:48:45;9.15;;;6.97;;
21018;SDS011;10667;51.056;3.732;2023-03-19T01:51:25;9.75;;;6.68;;
21018;SDS011;10667;51.056;3.732;2023-03-19T01:54:01;12.68;;;7.28;;
21018;SDS011;10667;51.056;3.732;2023-03-19T01:56:31;7.43;;;6.68;;
21018;SDS011;10667;51.056;3.732;2023-03-19T01:59:22;10.25;;;7.03;;
21018;SDS011;10667;51.056;3.732;2023-03-19T02:05:00;8.48;;;6.75;;
21018;SDS011;10667;51.056;3.732;2023-03-19T02:07:34;9.82;;;6.20;;
21018;SDS011;10667;51.056;3.732;2023-03-19T02:10:04;9.95;;;6.50;;
21018;SDS011;10667;51.056;3.732;2023-03-19T02:12:32;8.73;;;6.63;;
21018;SDS011;10667;51.056;3.732;2023-03-19T02:14:58;10.00;;;7.13;;
21018;SDS011;10667;51.056;3.732;2023-03-19T02:17:24;10.52;;;7.25;;
21018;SDS011;10667;51.056;3.732;2023-03-19T02:22:19;9.57;;;6.68;;
21018;SDS011;10667;51.056;3.732;2023-03-19T02:24:49;11.68;;;6.90;;
21018;SDS011;10667;51.056;3.732;2023-03-19T02:27:34;11.00;;;7.07;;
21018;SDS011;10667;51.056;3.732;2023-03-19T02:30:16;12.05;;;6.50;;
21018;SDS011;10667;51.056;3.732;2023-03-19T02:32:43;9.68;;;6.72;;
21018;SDS011;10667;51.056;3.732;2023-03-19T02:35:09;11.57;;;6.45;;
21018;SDS011;10667;51.056;3.732;2023-03-19T02:37:34;11.38;;;6.57;;
21018;SDS011;10667;51.056;3.732;2023-03-19T02:40:07;10.57;;;6.57;;
21018;SDS011;10667;51.056;3.732;2023-03-19T02:42:37;10.80;;;6.28;;
21018;SDS011;10667;51.056;3.732;2023-03-19T02:45:03;8.98;;;6.68;;
21018;SDS011;10667;51.056;3.732;2023-03-19T02:47:29;13.25;;;6.82;;
21018;SDS011;10667;51.056;3.732;2023-03-19T02:49:55;13.38;;;7.22;;
21018;SDS011;10667;51.056;3.732;2023-03-19T02:52:21;9.68;;;6.75;;
21018;SDS011;10667;51.056;3.732;2023-03-19T02:54:46;12.73;;;6.80;;
21018;SDS011;10667;51.056;3.732;2023-03-19T02:57:12;14.35;;;6.88;;
21018;SDS011;10667;51.056;3.732;2023-03-19T02:59:38;10.93;;;7.25;;
21018;SDS011;10667;51.056;3.732;2023-03-19T03:02:04;9.77;;;7.25;;
21018;SDS011;10667;51.056;3.732;2023-03-19T03:04:30;10.18;;;6.85;;
21018;SDS011;10667;51.056;3.732;2023-03-19T03:06:57;17.35;;;7.57;;
21018;SDS011;10667;51.056;3.732;2023-03-19T03:09:23;11.75;;;6.50;;
21018;SDS011;10667;51.056;3.732;2023-03-19T03:11:49;12.32;;;7.20;;
21018;SDS011;10667;51.056;3.732;2023-03-19T03:14:15;13.05;;;7.57;;
21018;SDS011;10667;51.056;3.732;2023-03-19T03:16:40;11.70;;;7.05;;
21018;SDS011;10667;51.056;3.732;2023-03-19T03:19:06;9.25;;;6.88;;
21018;SDS011;10667;51.056;3.732;2023-03-19T03:21:32;11.27;;;6.85;;
21018;SDS011;10667;51.056;3.732;2023-03-19T03:23:57;11.25;;;6.93;;
21018;SDS011;10667;51.056;3.732;2023-03-19T03:26:23;10.35;;;7.22;;
21018;SDS011;10667;51.056;3.732;2023-03-19T03:28:49;11.50;;;7.30;;
21018;SDS011;10667;51.056;3.732;2023-03-19T03:31:16;11.52;;;7.10;;
21018;SDS011;10667;51.056;3.732;2023-03-19T03:33:42;13.32;;;7.10;;
21018;SDS011;10667;51.056;3.732;2023-03-19T03:36:07;11.68;;;7.80;;
21018;SDS011;10667;51.056;3.732;2023-03-19T03:38:33;14.63;;;6.60;;
21018;SDS011;10667;51.056;3.732;2023-03-19T03:40:59;10.98;;;7.47;;
21018;SDS011;10667;51.056;3.732;2023-03-19T03:43:24;12.02;;;6.90;;
21018;SDS011;10667;51.056;3.732;2023-03-19T03:45:50;14.98;;;6.97;;
21018;SDS011;10667;51.056;3.732;2023-03-19T03:48:17;12.02;;;6.75;;
21018;SDS011;10667;51.056;3.732;2023-03-19T03:50:42;14.02;;;7.40;;
21018;SDS011;10667;51.056;3.732;2023-03-19T03:53:08;17.90;;;7.50;;
21018;SDS011;10667;51.056;3.732;2023-03-19T03:55:36;16.30;;;7.35;;
21018;SDS011;10667;51.056;3.732;2023-03-19T03:58:01;15.90;;;7.22;;
21018;SDS011;10667;51.056;3.732;2023-03-19T04:00:28;11.60;;;6.55;;
21018;SDS011;10667;51.056;3.732;2023-03-19T04:02:54;11.95;;;7.05;;
21018;SDS011;10667;51.056;3.732;2023-03-19T04:05:19;18.15;;;7.55;;
21018;SDS011;10667;51.056;3.732;2023-03-19T04:07:45;12.82;;;6.45;;
21018;SDS011;10667;51.056;3.732;2023-03-19T04:10:11;14.98;;;7.00;;
21018;SDS011;10667;51.056;3.732;2023-03-19T04:12:38;15.27;;;6.80;;
21018;SDS011;10667;51.056;3.732;2023-03-19T04:15:04;16.15;;;7.78;;
21018;SDS011;10667;51.056;3.732;2023-03-19T04:17:31;13.13;;;6.95;;
21018;SDS011;10667;51.056;3.732;2023-03-19T04:19:57;17.55;;;7.20;;
21018;SDS011;10667;51.056;3.732;2023-03-19T04:22:23;13.75;;;6.97;;
21018;SDS011;10667;51.056;3.732;2023-03-19T04:24:49;14.15;;;7.57;;
21018;SDS011;10667;51.056;3.732;2023-03-19T04:27:15;13.75;;;7.07;;
21018;SDS011;10667;51.056;3.732;2023-03-19T04:29:40;13.18;;;7.13;;
21018;SDS011;10667;51.056;3.732;2023-03-19T04:32:06;16.55;;;7.18;;
21018;SDS011;10667;51.056;3.732;2023-03-19T04:34:32;11.13;;;6.93;;
21018;SDS011;10667;51.056;3.732;2023-03-19T04:36:58;16.50;;;7.45;;
21018;SDS011;10667;51.056;3.732;2023-03-19T04:39:24;20.92;;;8.45;;
21018;SDS011;10667;51.056;3.732;2023-03-19T04:41:50;16.77;;;8.05;;
21018;SDS011;10667;51.056;3.732;2023-03-19T04:44:16;14.35;;;8.63;;
21018;SDS011;10667;51.056;3.732;2023-03-19T04:46:42;16.10;;;8.02;;
21018;SDS011;10667;51.056;3.732;2023-03-19T04:49:09;18.25;;;8.43;;
21018;SDS011;10667;51.056;3.732;2023-03-19T04:51:35;13.98;;;8.30;;
21018;SDS011;10667;51.056;3.732;2023-03-19T04:54:01;18.55;;;8.60;;
21018;SDS011;10667;51.056;3.732;2023-03-19T04:56:27;18.17;;;8.48;;
21018;SDS011;10667;51.056;3.732;2023-03-19T04:58:53;18.88;;;8.55;;
21018;SDS011;10667;51.056;3.732;2023-03-19T05:01:19;12.60;;;7.93;;
21018;SDS011;10667;51.056;3.732;2023-03-19T05:03:44;14.60;;;7.78;;
21018;SDS011;10667;51.056;3.732;2023-03-19T05:06:10;18.77;;;8.25;;
21018;SDS011;10667;51.056;3.732;2023-03-19T05:08:36;14.85;;;7.93;;
21018;SDS011;10667;51.056;3.732;2023-03-19T05:11:02;18.38;;;7.55;;
21018;SDS011;10667;51.056;3.732;2023-03-19T05:13:27;18.52;;;7.50;;
21018;SDS011;10667;51.056;3.732;2023-03-19T05:15:53;13.68;;;7.32;;
21018;SDS011;10667;51.056;3.732;2023-03-19T05:18:19;19.55;;;7.25;;
21018;SDS011;10667;51.056;3.732;2023-03-19T05:20:45;22.13;;;7.90;;
21018;SDS011;10667;51.056;3.732;2023-03-19T05:23:12;15.45;;;7.15;;
21018;SDS011;10667;51.056;3.732;2023-03-19T05:25:37;16.33;;;7.43;;
21018;SDS011;10667;51.056;3.732;2023-03-19T05:28:05;18.13;;;7.63;;
21018;SDS011;10667;51.056;3.732;2023-03-19T05:30:31;16.42;;;6.93;;
21018;SDS011;10667;51.056;3.732;2023-03-19T05:32:57;13.10;;;7.57;;
21018;SDS011;10667;51.056;3.732;2023-03-19T05:35:24;14.45;;;6.70;;
21018;SDS011;10667;51.056;3.732;2023-03-19T05:37:51;18.50;;;7.03;;
21018;SDS011;10667;51.056;3.732;2023-03-19T05:40:17;12.02;;;6.15;;
21018;SDS011;10667;51.056;3.732;2023-03-19T05:42:44;23.13;;;7.95;;
21018;SDS011;10667;51.056;3.732;2023-03-19T05:45:10;21.83;;;7.47;;
21018;SDS011;10667;51.056;3.732;2023-03-19T05:47:36;15.93;;;6.65;;
21018;SDS011;10667;51.056;3.732;2023-03-19T05:50:03;15.38;;;7.68;;
21018;SDS011;10667;51.056;3.732;2023-03-19T05:52:30;16.77;;;7.10;;
21018;SDS011;10667;51.056;3.732;2023-03-19T05:54:56;20.75;;;7.07;;
21018;SDS011;10667;51.056;3.732;2023-03-19T05:57:21;15.13;;;6.70;;
21018;SDS011;10667;51.056;3.732;2023-03-19T05:59:47;18.85;;;6.85;;
21018;SDS011;10667;51.056;3.732;2023-03-19T06:02:13;17.08;;;7.00;;
21018;SDS011;10667;51.056;3.732;2023-03-19T06:04:39;13.88;;;6.43;;
21018;SDS011;10667;51.056;3.732;2023-03-19T06:07:05;16.90;;;7.10;;
21018;SDS011;10667;51.056;3.732;2023-03-19T06:09:30;20.67;;;7.47;;
21018;SDS011;10667;51.056;3.732;2023-03-19T06:11:56;17.85;;;6.50;;
21018;SDS011;10667;51.056;3.732;2023-03-19T06:14:22;19.35;;;6.85;;
21018;SDS011;10667;51.056;3.732;2023-03-19T06:16:48;15.52;;;7.15;;
21018;SDS011;10667;51.056;3.732;2023-03-19T06:19:14;20.27;;;7.93;;
21018;SDS011;10667;51.056;3.732;2023-03-19T06:21:40;19.83;;;7.70;;
21018;SDS011;10667;51.056;3.732;2023-03-19T06:24:06;23.52;;;8.65;;
21018;SDS011;10667;51.056;3.732;2023-03-19T06:26:32;16.33;;;7.70;;
21018;SDS011;10667;51.056;3.732;2023-03-19T06:28:58;22.33;;;9.43;;
21018;SDS011;10667;51.056;3.732;2023-03-19T06:31:23;19.25;;;8.82;;
21018;SDS011;10667;51.056;3.732;2023-03-19T06:33:49;17.50;;;8.98;;
21018;SDS011;10667;51.056;3.732;2023-03-19T06:36:15;20.85;;;10.23;;
21018;SDS011;10667;51.056;3.732;2023-03-19T06:38:41;24.45;;;9.90;;
21018;SDS011;10667;51.056;3.732;2023-03-19T06:41:07;22.63;;;9.60;;
21018;SDS011;10667;51.056;3.732;2023-03-19T06:43:33;20.05;;;9.20;;
21018;SDS011;10667;51.056;3.732;2023-03-19T06:46:02;28.35;;;10.27;;
21018;SDS011;10667;51.056;3.732;2023-03-19T06:48:28;22.55;;;9.77;;
21018;SDS011;10667;51.056;3.732;2023-03-19T06:50:55;23.50;;;10.10;;
21018;SDS011;10667;51.056;3.732;2023-03-19T06:53:20;24.55;;;10.80;;
21018;SDS011;10667;51.056;3.732;2023-03-19T06:55:46;18.50;;;9.65;;
21018;SDS011;10667;51.056;3.732;2023-03-19T06:58:12;24.70;;;9.95;;
21018;SDS011;10667;51.056;3.732;2023-03-19T07:00:37;20.65;;;10.18;;
21018;SDS011;10667;51.056;3.732;2023-03-19T07:03:03;26.38;;;10.63;;
21018;SDS011;10667;51.056;3.732;2023-03-19T07:05:28;21.52;;;10.60;;
21018;SDS011;10667;51.056;3.732;2023-03-19T07:07:54;20.67;;;10.93;;
21018;SDS011;10667;51.056;3.732;2023-03-19T07:10:20;19.73;;;9.57;;
21018;SDS011;10667;51.056;3.732;2023-03-19T07:12:46;20.52;;;11.05;;
21018;SDS011;10667;51.056;3.732;2023-03-19T07:15:12;20.67;;;11.57;;
21018;SDS011;10667;51.056;3.732;2023-03-19T07:17:38;20.63;;;11.32;;
21018;SDS011;10667;51.056;3.732;2023-03-19T07:20:04;25.02;;;12.80;;
21018;SDS011;10667;51.056;3.732;2023-03-19T07:22:30;19.90;;;11.38;;
21018;SDS011;10667;51.056;3.732;2023-03-19T07:24:56;25.92;;;12.02;;
21018;SDS011;10667;51.056;3.732;2023-03-19T07:27:22;24.60;;;12.20;;
21018;SDS011;10667;51.056;3.732;2023-03-19T07:29:47;25.15;;;11.93;;
21018;SDS011;10667;51.056;3.732;2023-03-19T07:32:13;21.08;;;11.38;;
21018;SDS011;10667;51.056;3.732;2023-03-19T07:34:39;29.58;;;11.45;;
21018;SDS011;10667;51.056;3.732;2023-03-19T07:37:05;25.25;;;11.43;;
21018;SDS011;10667;51.056;3.732;2023-03-19T07:39:31;22.15;;;11.02;;
21018;SDS011;10667;51.056;3.732;2023-03-19T07:41:58;20.08;;;11.00;;
21018;SDS011;10667;51.056;3.732;2023-03-19T07:44:23;22.20;;;10.95;;
21018;SDS011;10667;51.056;3.732;2023-03-19T07:46:49;19.92;;;11.40;;
21018;SDS011;10667;51.056;3.732;2023-03-19T07:49:14;22.77;;;10.60;;
21018;SDS011;10667;51.056;3.732;2023-03-19T07:51:40;26.35;;;12.45;;
21018;SDS011;10667;51.056;3.732;2023-03-19T07:54:06;24.33;;;11.73;;
21018;SDS011;10667;51.056;3.732;2023-03-19T07:56:31;20.40;;;11.32;;
21018;SDS011;10667;51.056;3.732;2023-03-19T07:58:57;21.60;;;11.23;;
21018;SDS011;10667;51.056;3.732;2023-03-19T08:01:23;24.27;;;11.18;;
21018;SDS011;10667;51.056;3.732;2023-03-19T08:03:49;19.27;;;10.65;;
21018;SDS011;10667;51.056;3.732;2023-03-19T08:06:15;18.63;;;11.02;;
21018;SDS011;10667;51.056;3.732;2023-03-19T08:08:41;24.30;;;11.93;;
21018;SDS011;10667;51.056;3.732;2023-03-19T08:11:06;20.38;;;12.30;;
21018;SDS011;10667;51.056;3.732;2023-03-19T08:13:32;19.77;;;12.25;;
21018;SDS011;10667;51.056;3.732;2023-03-19T08:15:58;27.60;;;13.00;;
21018;SDS011;10667;51.056;3.732;2023-03-19T08:18:25;22.55;;;12.80;;
21018;SDS011;10667;51.056;3.732;2023-03-19T08:20:51;21.90;;;11.68;;
21018;SDS011;10667;51.056;3.732;2023-03-19T08:23:17;24.15;;;12.25;;
21018;SDS011;10667;51.056;3.732;2023-03-19T08:25:43;25.30;;;12.85;;
21018;SDS011;10667;51.056;3.732;2023-03-19T08:28:09;28.20;;;13.80;;
21018;SDS011;10667;51.056;3.732;2023-03-19T08:30:35;22.83;;;13.48;;
21018;SDS011;10667;51.056;3.732;2023-03-19T08:33:01;20.17;;;13.38;;
21018;SDS011;10667;51.056;3.732;2023-03-19T08:35:27;23.85;;;13.10;;
21018;SDS011;10667;51.056;3.732;2023-03-19T08:37:54;26.25;;;12.55;;
21018;SDS011;10667;51.056;3.732;2023-03-19T08:40:20;28.98;;;14.18;;
21018;SDS011;10667;51.056;3.732;2023-03-19T08:42:47;22.33;;;13.13;;
21018;SDS011;10667;51.056;3.732;2023-03-19T08:45:13;24.00;;;13.23;;
21018;SDS011;10667;51.056;3.732;2023-03-19T08:47:40;22.42;;;13.60;;
21018;SDS011;10667;51.056;3.732;2023-03-19T08:50:06;29.13;;;15.20;;
21018;SDS011;10667;51.056;3.732;2023-03-19T08:52:32;25.48;;;14.65;;
21018;SDS011;10667;51.056;3.732;2023-03-19T08:54:58;23.13;;;14.13;;
21018;SDS011;10667;51.056;3.732;2023-03-19T08:57:24;28.38;;;14.00;;
21018;SDS011;10667;51.056;3.732;2023-03-19T08:59:53;29.00;;;15.93;;
21018;SDS011;10667;51.056;3.732;2023-03-19T09:02:18;28.40;;;14.32;;
21018;SDS011;10667;51.056;3.732;2023-03-19T09:04:44;28.98;;;14.35;;
21018;SDS011;10667;51.056;3.732;2023-03-19T09:07:10;28.75;;;15.40;;
21018;SDS011;10667;51.056;3.732;2023-03-19T09:09:37;31.50;;;16.55;;
21018;SDS011;10667;51.056;3.732;2023-03-19T09:12:04;33.88;;;17.50;;
21018;SDS011;10667;51.056;3.732;2023-03-19T09:14:31;32.38;;;16.58;;
21018;SDS011;10667;51.056;3.732;2023-03-19T09:17:00;29.35;;;17.35;;
21018;SDS011;10667;51.056;3.732;2023-03-19T09:19:25;29.80;;;16.52;;
21018;SDS011;10667;51.056;3.732;2023-03-19T09:21:51;31.75;;;17.73;;
21018;SDS011;10667;51.056;3.732;2023-03-19T09:24:17;31.55;;;17.58;;
21018;SDS011;10667;51.056;3.732;2023-03-19T09:26:43;32.67;;;17.38;;
21018;SDS011;10667;51.056;3.732;2023-03-19T09:29:10;31.33;;;18.05;;
21018;SDS011;10667;51.056;3.732;2023-03-19T09:31:36;31.95;;;18.38;;
21018;SDS011;10667;51.056;3.732;2023-03-19T09:34:02;35.60;;;19.13;;
21018;SDS011;10667;51.056;3.732;2023-03-19T09:36:28;34.63;;;19.35;;
21018;SDS011;10667;51.056;3.732;2023-03-19T09:38:54;33.08;;;18.25;;
21018;SDS011;10667;51.056;3.732;2023-03-19T09:44:28;33.03;;;19.13;;
21018;SDS011;10667;51.056;3.732;2023-03-19T09:47:03;34.83;;;19.30;;
21018;SDS011;10667;51.056;3.732;2023-03-19T09:49:53;33.22;;;18.83;;
21018;SDS011;10667;51.056;3.732;2023-03-19T09:58:04;36.65;;;18.88;;
21018;SDS011;10667;51.056;3.732;2023-03-19T10:00:48;31.30;;;16.83;;
21018;SDS011;10667;51.056;3.732;2023-03-19T10:12:20;30.27;;;13.35;;
21018;SDS011;10667;51.056;3.732;2023-03-19T10:17:38;29.40;;;13.18;;
21018;SDS011;10667;51.056;3.732;2023-03-19T10:26:18;23.80;;;11.88;;
21018;SDS011;10667;51.056;3.732;2023-03-19T10:28:50;23.75;;;12.63;;
21018;SDS011;10667;51.056;3.732;2023-03-19T10:31:48;27.13;;;12.25;;
21018;SDS011;10667;51.056;3.732;2023-03-19T10:34:29;22.85;;;12.85;;
21018;SDS011;10667;51.056;3.732;2023-03-19T10:37:32;24.13;;;12.88;;
21018;SDS011;10667;51.056;3.732;2023-03-19T10:39:56;21.15;;;12.25;;
21018;SDS011;10667;51.056;3.732;2023-03-19T10:47:55;20.95;;;12.75;;
21018;SDS011;10667;51.056;3.732;2023-03-19T10:50:33;18.83;;;11.93;;
21018;SDS011;10667;51.056;3.732;2023-03-19T10:53:24;21.83;;;12.77;;
21018;SDS011;10667;51.056;3.732;2023-03-19T11:01:21;21.20;;;11.68;;
21018;SDS011;10667;51.056;3.732;2023-03-19T11:04:11;20.48;;;12.25;;
21018;SDS011;10667;51.056;3.732;2023-03-19T11:06:49;16.23;;;10.43;;
21018;SDS011;10667;51.056;3.732;2023-03-19T11:09:36;20.08;;;11.38;;
21018;SDS011;10667;51.056;3.732;2023-03-19T11:14:50;20.45;;;10.70;;
21018;SDS011;10667;51.056;3.732;2023-03-19T11:20:12;15.15;;;8.63;;
21018;SDS011;10667;51.056;3.732;2023-03-19T11:22:48;13.98;;;8.85;;
21018;SDS011;10667;51.056;3.732;2023-03-19T11:25:29;15.68;;;9.10;;
21018;SDS011;10667;51.056;3.732;2023-03-19T11:27:59;11.13;;;8.48;;
21018;SDS011;10667;51.056;3.732;2023-03-19T11:30:32;11.93;;;7.90;;
21018;SDS011;10667;51.056;3.732;2023-03-19T11:36:04;10.35;;;7.47;;
21018;SDS011;10667;51.056;3.732;2023-03-19T11:55:18;9.75;;;6.10;;
21018;SDS011;10667;51.056;3.732;2023-03-19T11:58:03;9.73;;;6.30;;
21018;SDS011;10667;51.056;3.732;2023-03-19T12:00:38;10.38;;;5.80;;
21018;SDS011;10667;51.056;3.732;2023-03-19T12:06:42;10.32;;;5.88;;
21018;SDS011;10667;51.056;3.732;2023-03-19T12:08:57;10.23;;;5.15;;
21018;SDS011;10667;51.056;3.732;2023-03-19T12:11:36;9.93;;;5.22;;
21018;SDS011;10667;51.056;3.732;2023-03-19T12:14:29;8.82;;;4.95;;
21018;SDS011;10667;51.056;3.732;2023-03-19T12:17:33;7.68;;;4.13;;
21018;SDS011;10667;51.056;3.732;2023-03-19T12:22:55;8.05;;;4.30;;
21018;SDS011;10667;51.056;3.732;2023-03-19T12:25:37;7.90;;;4.35;;
21018;SDS011;10667;51.056;3.732;2023-03-19T12:28:28;10.35;;;4.05;;
21018;SDS011;10667;51.056;3.732;2023-03-19T12:36:06;5.90;;;2.97;;
21018;SDS011;10667;51.056;3.732;2023-03-19T12:38:37;3.78;;;2.88;;
21018;SDS011;10667;51.056;3.732;2023-03-19T12:51:38;3.85;;;2.17;;
21018;SDS011;10667;51.056;3.732;2023-03-19T12:54:17;3.83;;;2.13;;
21018;SDS011;10667;51.056;3.732;2023-03-19T13:02:29;2.53;;;2.20;;
21018;SDS011;10667;51.056;3.732;2023-03-19T13:05:00;6.72;;;2.25;;
21018;SDS011;10667;51.056;3.732;2023-03-19T13:07:54;5.90;;;2.75;;
21018;SDS011;10667;51.056;3.732;2023-03-19T13:10:29;4.70;;;2.63;;
21018;SDS011;10667;51.056;3.732;2023-03-19T13:12:56;7.65;;;3.28;;
21018;SDS011;10667;51.056;3.732;2023-03-19T13:15:38;6.28;;;3.65;;
21018;SDS011;10667;51.056;3.732;2023-03-19T13:23:32;6.78;;;4.10;;
21018;SDS011;10667;51.056;3.732;2023-03-19T13:26:01;6.47;;;4.53;;
21018;SDS011;10667;51.056;3.732;2023-03-19T13:28:32;12.15;;;5.18;;
21018;SDS011;10667;51.056;3.732;2023-03-19T13:31:03;5.72;;;4.57;;
21018;SDS011;10667;51.056;3.732;2023-03-19T13:33:32;8.38;;;5.10;;
21018;SDS011;10667;51.056;3.732;2023-03-19T13:36:03;10.23;;;4.75;;
21018;SDS011;10667;51.056;3.732;2023-03-19T13:38:44;10.07;;;5.35;;
21018;SDS011;10667;51.056;3.732;2023-03-19T13:43:57;6.88;;;4.82;;
21018;SDS011;10667;51.056;3.732;2023-03-19T13:46:34;7.22;;;4.43;;
21018;SDS011;10667;51.056;3.732;2023-03-19T13:49:35;7.30;;;4.90;;
21018;SDS011;10667;51.056;3.732;2023-03-19T13:54:35;10.02;;;5.68;;
21018;SDS011;10667;51.056;3.732;2023-03-19T13:57:05;13.10;;;5.70;;
21018;SDS011;10667;51.056;3.732;2023-03-19T13:59:37;9.65;;;6.05;;
21018;SDS011;10667;51.056;3.732;2023-03-19T14:04:40;13.38;;;6.18;;
21018;SDS011;10667;51.056;3.732;2023-03-19T14:07:26;13.85;;;6.53;;
21018;SDS011;10667;51.056;3.732;2023-03-19T14:10:09;11.93;;;6.47;;
21018;SDS011;10667;51.056;3.732;2023-03-19T14:13:06;8.88;;;5.65;;
21018;SDS011;10667;51.056;3.732;2023-03-19T14:15:39;14.13;;;6.28;;
21018;SDS011;10667;51.056;3.732;2023-03-19T14:18:12;14.63;;;6.00;;
21018;SDS011;10667;51.056;3.732;2023-03-19T14:20:52;14.27;;;6.18;;
21018;SDS011;10667;51.056;3.732;2023-03-19T14:23:23;16.80;;;6.05;;
21018;SDS011;10667;51.056;3.732;2023-03-19T14:31:17;10.50;;;5.55;;
21018;SDS011;10667;51.056;3.732;2023-03-19T14:36:28;12.73;;;5.32;;
21018;SDS011;10667;51.056;3.732;2023-03-19T14:41:24;7.72;;;4.80;;
21018;SDS011;10667;51.056;3.732;2023-03-19T14:44:07;11.63;;;5.15;;
21018;SDS011;10667;51.056;3.732;2023-03-19T14:52:24;8.55;;;4.75;;
21018;SDS011;10667;51.056;3.732;2023-03-19T14:54:55;10.00;;;5.00;;
21018;SDS011;10667;51.056;3.732;2023-03-19T14:57:41;9.18;;;4.85;;
21018;SDS011;10667;51.056;3.732;2023-03-19T15:00:15;11.63;;;5.22;;
21018;SDS011;10667;51.056;3.732;2023-03-19T15:02:43;13.88;;;6.20;;
21018;SDS011;10667;51.056;3.732;2023-03-19T15:05:15;12.30;;;5.72;;
21018;SDS011;10667;51.056;3.732;2023-03-19T15:07:51;10.57;;;5.63;;
21018;SDS011;10667;51.056;3.732;2023-03-19T15:10:20;14.88;;;5.38;;
21018;SDS011;10667;51.056;3.732;2023-03-19T15:15:41;12.57;;;5.75;;
21018;SDS011;10667;51.056;3.732;2023-03-19T15:18:18;10.90;;;4.97;;
21018;SDS011;10667;51.056;3.732;2023-03-19T15:20:49;8.57;;;5.45;;
21018;SDS011;10667;51.056;3.732;2023-03-19T15:23:21;11.57;;;5.07;;
21018;SDS011;10667;51.056;3.732;2023-03-19T15:25:50;15.73;;;5.72;;
21018;SDS011;10667;51.056;3.732;2023-03-19T15:28:21;9.15;;;5.43;;
21018;SDS011;10667;51.056;3.732;2023-03-19T15:30:59;9.68;;;5.25;;
21018;SDS011;10667;51.056;3.732;2023-03-19T15:33:33;8.65;;;5.25;;
21018;SDS011;10667;51.056;3.732;2023-03-19T15:36:07;8.02;;;4.50;;
21018;SDS011;10667;51.056;3.732;2023-03-19T15:38:47;7.38;;;4.22;;
21018;SDS011;10667;51.056;3.732;2023-03-19T15:41:18;7.43;;;5.03;;
21018;SDS011;10667;51.056;3.732;2023-03-19T15:43:47;9.13;;;6.43;;
21018;SDS011;10667;51.056;3.732;2023-03-19T15:46:14;18.92;;;8.63;;
21018;SDS011;10667;51.056;3.732;2023-03-19T15:48:45;12.88;;;7.55;;
21018;SDS011;10667;51.056;3.732;2023-03-19T15:51:27;12.50;;;7.70;;
21018;SDS011;10667;51.056;3.732;2023-03-19T15:53:53;12.23;;;6.80;;
21018;SDS011;10667;51.056;3.732;2023-03-19T15:56:20;12.82;;;5.63;;
21018;SDS011;10667;51.056;3.732;2023-03-19T15:58:48;15.15;;;6.80;;
21018;SDS011;10667;51.056;3.732;2023-03-19T16:01:16;11.25;;;6.00;;
21018;SDS011;10667;51.056;3.732;2023-03-19T16:03:43;16.88;;;6.15;;
21018;SDS011;10667;51.056;3.732;2023-03-19T16:06:22;10.68;;;5.03;;
21018;SDS011;10667;51.056;3.732;2023-03-19T16:08:52;12.40;;;5.18;;
21018;SDS011;10667;51.056;3.732;2023-03-19T16:13:57;8.43;;;4.65;;
21018;SDS011;10667;51.056;3.732;2023-03-19T16:16:26;9.35;;;4.80;;
21018;SDS011;10667;51.056;3.732;2023-03-19T16:18:55;7.55;;;4.88;;
21018;SDS011;10667;51.056;3.732;2023-03-19T16:21:23;10.85;;;5.00;;
21018;SDS011;10667;51.056;3.732;2023-03-19T16:24:12;11.32;;;5.70;;
21018;SDS011;10667;51.056;3.732;2023-03-19T16:26:48;13.50;;;6.60;;
21018;SDS011;10667;51.056;3.732;2023-03-19T16:29:18;8.10;;;5.38;;
21018;SDS011;10667;51.056;3.732;2023-03-19T16:31:59;12.55;;;6.75;;
21018;SDS011;10667;51.056;3.732;2023-03-19T16:39:58;11.32;;;5.53;;
21018;SDS011;10667;51.056;3.732;2023-03-19T16:45:01;13.00;;;6.43;;
21018;SDS011;10667;51.056;3.732;2023-03-19T16:47:42;15.40;;;7.75;;
21018;SDS011;10667;51.056;3.732;2023-03-19T16:50:09;11.88;;;6.30;;
21018;SDS011;10667;51.056;3.732;2023-03-19T16:52:36;10.65;;;6.22;;
21018;SDS011;10667;51.056;3.732;2023-03-19T16:55:03;11.40;;;6.80;;
21018;SDS011;10667;51.056;3.732;2023-03-19T16:57:36;12.55;;;6.65;;
21018;SDS011;10667;51.056;3.732;2023-03-19T17:00:02;11.77;;;6.60;;
21018;SDS011;10667;51.056;3.732;2023-03-19T17:02:29;15.68;;;6.43;;
21018;SDS011;10667;51.056;3.732;2023-03-19T17:04:54;15.00;;;6.88;;
21018;SDS011;10667;51.056;3.732;2023-03-19T17:07:20;10.30;;;6.38;;